createdAt,value
2018-03-15T00:01:11.288Z,1.40
2018-03-15T00:03:39.055Z,1.40
2018-03-15T00:06:06.685Z,1.40
2018-03-15T00:08:34.376Z,1.40
2018-03-15T00:11:02.227Z,1.40
2018-03-15T00:13:29.986Z,1.40
2018-03-15T00:15:57.458Z,1.40
2018-03-15T00:18:25.003Z,1.50
2018-03-15T00:20:52.786Z,1.50
2018-03-15T00:23:20.247Z,1.50
2018-03-15T00:25:48.016Z,1.40
2018-03-15T00:28:15.552Z,1.40
2018-03-15T00:30:43.001Z,1.50
2018-03-15T00:33:10.750Z,1.50
2018-03-15T00:35:39.032Z,1.40
2018-03-15T00:38:06.482Z,1.40
2018-03-15T00:40:34.483Z,1.40
2018-03-15T00:43:01.930Z,1.40
2018-03-15T00:45:29.843Z,1.40
2018-03-15T00:47:57.527Z,1.40
2018-03-15T00:50:25.346Z,1.40
2018-03-15T00:52:53.043Z,1.40
2018-03-15T00:55:20.788Z,1.40
2018-03-15T00:57:48.443Z,1.40
2018-03-15T01:00:15.890Z,1.40
2018-03-15T01:02:43.342Z,1.50
2018-03-15T01:05:10.879Z,1.50
2018-03-15T01:07:38.766Z,1.50
2018-03-15T01:10:06.563Z,1.50
2018-03-15T01:12:34.294Z,1.40
2018-03-15T01:15:01.918Z,1.40
2018-03-15T01:17:30.380Z,1.40
2018-03-15T01:19:58.699Z,1.40
2018-03-15T01:22:26.479Z,1.30
2018-03-15T01:24:54.354Z,1.30
2018-03-15T01:27:21.836Z,1.30
2018-03-15T01:29:49.289Z,1.30
2018-03-15T01:32:16.903Z,1.20
2018-03-15T01:34:44.361Z,1.20
2018-03-15T01:37:11.843Z,1.20
2018-03-15T01:39:39.605Z,1.20
2018-03-15T01:42:07.807Z,1.20
2018-03-15T01:44:35.251Z,1.30
2018-03-15T01:47:02.879Z,1.30
2018-03-15T01:49:30.767Z,1.30
2018-03-15T01:51:58.605Z,1.30
2018-03-15T01:54:26.328Z,1.30
2018-03-15T01:56:54.235Z,1.30
2018-03-15T01:59:22.027Z,1.30
2018-03-15T02:01:49.592Z,1.20
2018-03-15T02:04:17.379Z,1.20
2018-03-15T02:06:45.031Z,1.20
2018-03-15T02:09:13.364Z,1.20
2018-03-15T02:11:41.264Z,1.10
2018-03-15T02:14:09.028Z,1.10
2018-03-15T02:16:37.100Z,1.10
2018-03-15T02:19:04.571Z,1.10
2018-03-15T02:21:32.218Z,1.10
2018-03-15T02:23:59.723Z,1.10
2018-03-15T02:26:27.442Z,1.00
2018-03-15T02:28:55.187Z,1.00
2018-03-15T02:31:22.755Z,1.00
2018-03-15T02:33:50.239Z,1.00
2018-03-15T02:36:17.691Z,0.90
2018-03-15T02:38:45.303Z,0.90
2018-03-15T02:41:12.757Z,0.90
2018-03-15T02:43:40.304Z,0.90
2018-03-15T02:46:07.998Z,0.90
2018-03-15T02:48:36.107Z,0.90
2018-03-15T02:51:03.581Z,0.90
2018-03-15T02:53:31.047Z,0.80
2018-03-15T02:55:58.746Z,0.80
2018-03-15T02:58:26.231Z,0.90
2018-03-15T03:00:54.091Z,0.90
2018-03-15T03:03:21.734Z,0.90
2018-03-15T03:05:49.177Z,0.90
2018-03-15T03:08:16.779Z,0.90
2018-03-15T03:10:46.117Z,0.90
2018-03-15T03:13:13.700Z,0.90
2018-03-15T03:15:41.282Z,1.00
2018-03-15T03:18:08.922Z,1.00
2018-03-15T03:20:36.562Z,1.00
2018-03-15T03:23:04.410Z,1.00
2018-03-15T03:25:32.833Z,1.00
2018-03-15T03:28:00.435Z,1.00
2018-03-15T03:30:28.155Z,1.00
2018-03-15T03:32:55.921Z,1.00
2018-03-15T03:35:23.375Z,1.10
2018-03-15T03:37:50.850Z,1.10
2018-03-15T03:40:18.514Z,1.10
2018-03-15T03:42:46.319Z,1.10
2018-03-15T03:45:13.858Z,1.10
2018-03-15T03:47:41.624Z,1.10
2018-03-15T03:50:09.269Z,1.00
2018-03-15T03:52:37.028Z,1.00
2018-03-15T03:55:04.597Z,1.00
2018-03-15T03:57:32.350Z,1.00
2018-03-15T04:00:00.015Z,0.90
2018-03-15T04:02:27.586Z,0.90
2018-03-15T04:04:55.043Z,0.90
2018-03-15T04:07:22.504Z,0.90
2018-03-15T04:09:50.134Z,0.90
2018-03-15T04:12:17.621Z,0.90
2018-03-15T04:14:45.479Z,0.90
2018-03-15T04:17:13.109Z,0.90
2018-03-15T04:19:40.675Z,0.90
2018-03-15T04:22:08.356Z,0.90
2018-03-15T04:24:36.232Z,0.90
2018-03-15T04:27:03.674Z,0.90
2018-03-15T04:29:31.455Z,0.90
2018-03-15T04:31:59.225Z,0.90
2018-03-15T04:34:26.679Z,0.90
2018-03-15T04:36:54.294Z,1.00
2018-03-15T04:39:21.806Z,1.00
2018-03-15T04:41:49.658Z,1.00
2018-03-15T04:44:17.306Z,1.00
2018-03-15T04:46:44.746Z,1.10
2018-03-15T04:49:12.431Z,1.10
2018-03-15T04:51:40.262Z,1.00
2018-03-15T04:54:07.753Z,1.00
2018-03-15T04:56:35.214Z,1.00
2018-03-15T04:59:02.786Z,1.00
2018-03-15T05:01:30.230Z,1.00
2018-03-15T05:03:57.994Z,1.10
2018-03-15T05:06:25.444Z,1.10
2018-03-15T05:08:52.895Z,1.10
2018-03-15T05:11:20.982Z,1.10
2018-03-15T05:13:48.478Z,1.10
2018-03-15T05:16:16.082Z,1.10
2018-03-15T05:18:43.672Z,1.10
2018-03-15T05:21:11.286Z,1.10
2018-03-15T05:23:38.790Z,1.10
2018-03-15T05:26:06.629Z,1.10
2018-03-15T05:28:34.414Z,1.10
2018-03-15T05:31:01.860Z,1.10
2018-03-15T05:33:29.311Z,1.10
2018-03-15T05:35:57.397Z,1.10
2018-03-15T05:38:24.942Z,1.10
2018-03-15T05:40:52.659Z,1.10
2018-03-15T05:43:20.694Z,1.10
2018-03-15T05:45:48.146Z,1.00
2018-03-15T05:48:16.089Z,1.00
2018-03-15T05:50:43.909Z,1.10
2018-03-15T05:53:11.756Z,1.10
2018-03-15T05:55:39.514Z,1.10
2018-03-15T05:58:06.964Z,1.10
2018-03-15T06:00:34.612Z,1.10
2018-03-15T06:03:02.062Z,1.10
2018-03-15T06:05:30.609Z,1.20
2018-03-15T06:07:58.198Z,1.20
2018-03-15T06:10:26.035Z,1.20
2018-03-15T06:12:53.871Z,1.20
2018-03-15T06:15:21.350Z,1.30
2018-03-15T06:17:49.086Z,1.30
2018-03-15T06:20:16.874Z,1.30
2018-03-15T06:22:44.328Z,1.30
2018-03-15T06:25:11.943Z,1.30
2018-03-15T06:27:39.699Z,1.40
2018-03-15T06:30:07.326Z,1.40
2018-03-15T06:32:35.702Z,1.50
2018-03-15T06:35:03.442Z,1.50
2018-03-15T06:37:31.098Z,1.50
2018-03-15T06:39:58.836Z,1.60
2018-03-15T06:42:26.342Z,1.70
2018-03-15T06:44:53.790Z,1.70
2018-03-15T06:47:21.241Z,1.70
2018-03-15T06:49:48.767Z,1.80
2018-03-15T06:52:16.422Z,1.80
2018-03-15T06:54:43.925Z,1.90
2018-03-15T06:57:11.781Z,2.00
2018-03-15T06:59:39.242Z,2.00
2018-03-15T07:02:06.721Z,2.10
2018-03-15T07:04:34.415Z,2.20
2018-03-15T07:07:02.786Z,2.20
2018-03-15T07:09:30.246Z,2.30
2018-03-15T07:11:58.066Z,2.50
2018-03-15T07:14:25.523Z,2.60
2018-03-15T07:16:53.182Z,2.70
2018-03-15T07:19:20.924Z,2.90
2018-03-15T07:21:48.366Z,2.90
2018-03-15T07:24:16.475Z,3.00
2018-03-15T07:26:43.925Z,3.20
2018-03-15T07:29:11.374Z,3.30
2018-03-15T07:31:39.254Z,3.40
2018-03-15T07:34:07.322Z,3.60
2018-03-15T07:36:35.087Z,3.60
2018-03-15T07:39:02.850Z,3.70
2018-03-15T07:41:30.758Z,3.90
2018-03-15T07:43:58.985Z,4.00
2018-03-15T07:46:26.620Z,4.00
2018-03-15T07:48:55.159Z,4.10
2018-03-15T07:51:22.766Z,4.10
2018-03-15T07:53:50.222Z,4.40
2018-03-15T07:56:17.682Z,4.80
2018-03-15T07:58:45.202Z,5.30
2018-03-15T08:01:12.715Z,5.70
2018-03-15T08:03:40.135Z,6.10
2018-03-15T08:06:07.586Z,6.20
2018-03-15T08:08:35.810Z,6.40
2018-03-15T08:11:03.431Z,6.40
2018-03-15T08:13:30.874Z,6.70
2018-03-15T08:15:58.346Z,6.70
2018-03-15T08:18:26.034Z,6.60
2018-03-15T08:20:53.486Z,7.10
2018-03-15T08:23:20.934Z,6.90
2018-03-15T08:25:48.386Z,7.20
2018-03-15T08:28:15.926Z,7.70
2018-03-15T08:30:43.375Z,7.90
2018-03-15T08:33:10.826Z,7.80
2018-03-15T08:35:38.282Z,8.30
2018-03-15T08:38:06.434Z,8.20
2018-03-15T08:40:34.086Z,7.80
2018-03-15T08:43:01.547Z,7.80
2018-03-15T08:45:29.252Z,7.90
2018-03-15T08:47:57.966Z,8.20
2018-03-15T08:50:25.468Z,8.20
2018-03-15T08:52:53.200Z,8.10
2018-03-15T08:55:20.646Z,8.40
2018-03-15T08:57:48.139Z,8.50
2018-03-15T09:00:16.060Z,8.50
2018-03-15T09:02:43.774Z,8.70
2018-03-15T09:05:11.538Z,9.10
2018-03-15T09:07:38.981Z,8.00
2018-03-15T09:10:06.450Z,8.50
2018-03-15T09:12:33.890Z,8.80
2018-03-15T09:15:01.347Z,9.10
2018-03-15T09:17:28.787Z,9.20
2018-03-15T09:19:56.245Z,9.50
2018-03-15T09:22:23.695Z,10.00
2018-03-15T09:24:51.146Z,9.90
2018-03-15T09:27:18.597Z,9.80
2018-03-15T09:29:46.825Z,10.10
2018-03-15T09:32:14.270Z,10.10
2018-03-15T09:34:41.736Z,10.40
2018-03-15T09:37:09.330Z,10.20
2018-03-15T09:39:36.822Z,10.60
2018-03-15T09:42:04.265Z,11.00
2018-03-15T09:44:31.718Z,11.40
2018-03-15T09:46:59.194Z,11.20
2018-03-15T09:49:26.642Z,11.50
2018-03-15T09:51:54.172Z,11.30
2018-03-15T09:54:21.626Z,11.70
2018-03-15T09:56:49.095Z,10.60
2018-03-15T09:59:16.749Z,10.00
2018-03-15T10:01:44.221Z,10.50
2018-03-15T10:04:11.669Z,9.90
2018-03-15T10:06:39.118Z,10.40
2018-03-15T10:09:06.570Z,10.40
2018-03-15T10:11:34.022Z,10.10
2018-03-15T10:14:01.466Z,10.60
2018-03-15T10:16:28.942Z,10.70
2018-03-15T10:18:56.390Z,10.90
2018-03-15T10:21:23.864Z,10.90
2018-03-15T10:23:51.310Z,10.70
2018-03-15T10:26:18.785Z,10.10
2018-03-15T10:28:47.007Z,10.70
2018-03-15T10:31:14.475Z,10.70
2018-03-15T10:33:41.918Z,10.90
2018-03-15T10:36:09.386Z,10.60
2018-03-15T10:38:36.835Z,11.00
2018-03-15T10:41:04.294Z,11.30
2018-03-15T10:43:31.802Z,10.40
2018-03-15T10:46:00.020Z,11.20
2018-03-15T10:48:27.481Z,11.10
2018-03-15T10:50:54.930Z,11.40
2018-03-15T10:53:22.374Z,11.10
2018-03-15T10:55:49.865Z,11.60
2018-03-15T10:58:17.322Z,11.70
2018-03-15T11:00:50.494Z,12.10
2018-03-15T11:03:17.942Z,11.40
2018-03-15T11:05:48.274Z,11.50
2018-03-15T11:08:21.304Z,11.40
2018-03-15T11:10:48.994Z,11.80
2018-03-15T11:13:16.501Z,11.90
2018-03-15T11:15:43.957Z,12.00
2018-03-15T11:18:11.406Z,12.00
2018-03-15T11:20:38.858Z,11.80
2018-03-15T11:23:06.311Z,11.90
2018-03-15T11:25:33.768Z,11.80
2018-03-15T11:28:01.213Z,11.90
2018-03-15T11:30:28.671Z,12.10
2018-03-15T11:32:56.122Z,11.70
2018-03-15T11:35:23.578Z,11.60
2018-03-15T11:37:51.063Z,11.10
2018-03-15T11:40:18.530Z,10.70
2018-03-15T11:42:45.980Z,10.70
2018-03-15T11:45:13.476Z,11.10
2018-03-15T11:47:40.934Z,11.60
2018-03-15T11:50:08.406Z,12.10
2018-03-15T11:52:35.874Z,12.00
2018-03-15T11:55:03.322Z,11.60
2018-03-15T11:57:30.782Z,11.90
2018-03-15T11:59:58.274Z,12.30
2018-03-15T12:02:25.747Z,12.10
2018-03-15T12:04:53.200Z,11.80
2018-03-15T12:07:20.678Z,11.80
2018-03-15T12:09:48.142Z,12.20
2018-03-15T12:12:15.610Z,12.30
2018-03-15T12:14:43.834Z,12.80
2018-03-15T12:17:11.348Z,12.80
2018-03-15T12:19:38.740Z,12.90
2018-03-15T12:22:07.918Z,12.90
2018-03-15T12:24:35.365Z,12.00
2018-03-15T12:27:02.822Z,12.10
2018-03-15T12:29:31.047Z,12.20
2018-03-15T12:31:58.510Z,12.20
2018-03-15T12:34:25.965Z,12.60
2018-03-15T12:36:53.426Z,12.90
2018-03-15T12:39:20.883Z,13.00
2018-03-15T12:41:48.520Z,12.50
2018-03-15T12:44:16.729Z,11.90
2018-03-15T12:46:44.195Z,11.80
2018-03-15T12:49:11.662Z,11.70
2018-03-15T12:51:39.110Z,12.00
2018-03-15T12:54:06.563Z,11.60
2018-03-15T12:56:34.063Z,11.60
2018-03-15T12:59:01.564Z,11.90
2018-03-15T13:01:29.222Z,11.90
2018-03-15T13:03:56.683Z,12.10
2018-03-15T13:06:24.154Z,12.30
2018-03-15T13:08:53.126Z,11.80
2018-03-15T13:11:20.610Z,11.80
2018-03-15T13:13:48.059Z,12.20
2018-03-15T13:16:15.558Z,12.10
2018-03-15T13:18:43.023Z,12.50
2018-03-15T13:21:10.600Z,12.30
2018-03-15T13:23:38.071Z,12.40
2018-03-15T13:26:05.526Z,13.10
2018-03-15T13:28:33.002Z,13.00
2018-03-15T13:31:00.690Z,12.90
2018-03-15T13:33:28.164Z,12.80
2018-03-15T13:35:56.388Z,12.40
2018-03-15T13:38:23.846Z,12.30
2018-03-15T13:40:51.330Z,12.10
2018-03-15T13:43:18.778Z,11.80
2018-03-15T13:45:46.246Z,11.70
2018-03-15T13:48:13.741Z,11.90
2018-03-15T13:50:41.186Z,11.80
2018-03-15T13:53:08.672Z,11.60
2018-03-15T13:55:36.139Z,11.50
2018-03-15T13:58:03.755Z,11.70
2018-03-15T14:00:31.236Z,12.00
2018-03-15T14:02:58.704Z,12.00
2018-03-15T14:05:26.151Z,11.80
2018-03-15T14:07:53.635Z,11.60
2018-03-15T14:10:21.083Z,11.90
2018-03-15T14:12:48.551Z,11.60
2018-03-15T14:15:16.016Z,11.60
2018-03-15T14:17:43.539Z,11.50
2018-03-15T14:20:10.962Z,11.40
2018-03-15T14:22:38.443Z,11.20
2018-03-15T14:25:05.915Z,11.20
2018-03-15T14:27:33.365Z,10.90
2018-03-15T14:30:00.862Z,10.90
2018-03-15T14:32:28.323Z,10.90
2018-03-15T14:34:55.836Z,10.70
2018-03-15T14:37:24.036Z,10.80
2018-03-15T14:39:51.523Z,10.80
2018-03-15T14:42:18.975Z,10.70
2018-03-15T14:44:46.459Z,10.50
2018-03-15T14:47:13.910Z,10.60
2018-03-15T14:49:41.415Z,10.60
2018-03-15T14:52:08.901Z,10.50
2018-03-15T14:54:36.354Z,10.40
2018-03-15T14:57:03.830Z,10.30
2018-03-15T14:59:31.286Z,10.10
2018-03-15T15:01:58.734Z,10.00
2018-03-15T15:04:26.207Z,10.00
2018-03-15T15:06:54.423Z,10.10
2018-03-15T15:09:21.887Z,10.10
2018-03-15T15:11:49.354Z,9.90
2018-03-15T15:14:16.822Z,9.90
2018-03-15T15:16:44.262Z,9.90
2018-03-15T15:19:11.755Z,9.90
2018-03-15T15:21:39.207Z,9.70
2018-03-15T15:24:06.686Z,9.60
2018-03-15T15:26:34.180Z,9.70
2018-03-15T15:29:01.647Z,9.70
2018-03-15T15:31:29.107Z,9.70
2018-03-15T15:33:56.603Z,9.70
2018-03-15T15:36:24.042Z,9.70
2018-03-15T15:38:51.490Z,9.70
2018-03-15T15:41:18.990Z,9.60
2018-03-15T15:43:47.257Z,9.40
2018-03-15T15:46:14.731Z,9.40
2018-03-15T15:48:42.195Z,9.50
2018-03-15T15:51:09.846Z,9.40
2018-03-15T15:53:37.303Z,9.40
2018-03-15T15:56:05.519Z,9.40
2018-03-15T15:58:32.958Z,9.30
2018-03-15T16:01:00.430Z,9.30
2018-03-15T16:03:28.088Z,9.10
2018-03-15T16:05:55.550Z,8.90
2018-03-15T16:08:23.027Z,9.00
2018-03-15T16:10:50.511Z,8.80
2018-03-15T16:13:17.967Z,8.80
2018-03-15T16:15:45.478Z,8.80
2018-03-15T16:18:12.883Z,8.70
2018-03-15T16:20:40.347Z,8.60
2018-03-15T16:23:07.811Z,8.60
2018-03-15T16:25:35.269Z,8.50
2018-03-15T16:28:02.747Z,8.40
2018-03-15T16:30:30.237Z,8.40
2018-03-15T16:32:57.705Z,8.40
2018-03-15T16:35:25.326Z,8.30
2018-03-15T16:37:52.779Z,8.30
2018-03-15T16:40:20.265Z,8.20
2018-03-15T16:42:47.698Z,8.20
2018-03-15T16:45:15.146Z,8.10
2018-03-15T16:47:42.730Z,8.00
2018-03-15T16:50:10.174Z,8.00
2018-03-15T16:52:37.816Z,8.00
2018-03-15T16:55:05.254Z,7.90
2018-03-15T16:57:32.706Z,7.90
2018-03-15T17:00:00.220Z,7.80
2018-03-15T17:02:27.618Z,7.80
2018-03-15T17:04:55.236Z,7.70
2018-03-15T17:07:22.709Z,7.70
2018-03-15T17:09:50.186Z,7.70
2018-03-15T17:12:17.630Z,7.60
2018-03-15T17:14:45.102Z,7.50
2018-03-15T17:17:12.546Z,7.50
2018-03-15T17:19:40.014Z,7.50
2018-03-15T17:22:07.498Z,7.40
2018-03-15T17:24:35.728Z,7.30
2018-03-15T17:27:03.204Z,7.30
2018-03-15T17:29:30.646Z,7.30
2018-03-15T17:31:58.102Z,7.30
2018-03-15T17:34:25.552Z,7.20
2018-03-15T17:36:53.036Z,7.20
2018-03-15T17:39:20.574Z,7.10
2018-03-15T17:41:48.086Z,7.10
2018-03-15T17:44:16.302Z,7.10
2018-03-15T17:46:43.755Z,7.00
2018-03-15T17:49:11.223Z,7.10
2018-03-15T17:51:38.685Z,7.00
2018-03-15T17:54:06.155Z,7.00
2018-03-15T17:56:33.614Z,7.00
2018-03-15T17:59:01.058Z,6.90
2018-03-15T18:01:28.523Z,6.80
2018-03-15T18:03:55.979Z,6.90
2018-03-15T18:06:23.430Z,6.90
2018-03-15T18:08:50.910Z,6.80
2018-03-15T18:11:18.520Z,6.80
2018-03-15T18:13:45.957Z,6.80
2018-03-15T18:16:13.394Z,6.80
2018-03-15T18:18:41.627Z,6.80
2018-03-15T18:21:09.117Z,6.80
2018-03-15T18:23:36.579Z,6.70
2018-03-15T18:26:04.018Z,6.70
2018-03-15T18:28:31.466Z,6.70
2018-03-15T18:30:58.911Z,6.60
2018-03-15T18:33:26.403Z,6.60
2018-03-15T18:35:53.842Z,6.50
2018-03-15T18:38:21.310Z,6.50
2018-03-15T18:40:48.783Z,6.50
2018-03-15T18:43:16.240Z,6.40
2018-03-15T18:45:43.678Z,6.40
2018-03-15T18:48:11.150Z,6.40
2018-03-15T18:50:38.594Z,6.30
2018-03-15T18:53:06.051Z,6.30
2018-03-15T18:55:33.507Z,6.20
2018-03-15T18:58:00.958Z,6.10
2018-03-15T19:00:28.415Z,6.10
2018-03-15T19:02:55.866Z,6.10
2018-03-15T19:05:23.348Z,6.00
2018-03-15T19:07:50.815Z,6.00
2018-03-15T19:10:18.247Z,6.00
2018-03-15T19:12:46.871Z,5.90
2018-03-15T19:15:14.311Z,5.90
2018-03-15T19:17:42.547Z,5.80
2018-03-15T19:20:10.034Z,5.80
2018-03-15T19:22:37.500Z,5.80
2018-03-15T19:25:04.894Z,5.80
2018-03-15T19:27:32.366Z,5.80
2018-03-15T19:29:59.804Z,5.80
2018-03-15T19:32:27.458Z,5.70
2018-03-15T19:34:54.911Z,5.70
2018-03-15T19:37:22.375Z,5.70
2018-03-15T19:39:49.862Z,5.60
2018-03-15T19:42:17.318Z,5.60
2018-03-15T19:44:45.098Z,5.70
2018-03-15T19:47:12.546Z,5.60
2018-03-15T19:49:39.994Z,5.60
2018-03-15T19:52:07.433Z,5.50
2018-03-15T19:54:34.942Z,5.50
2018-03-15T19:57:02.386Z,5.50
2018-03-15T19:59:29.847Z,5.50
2018-03-15T20:01:57.453Z,5.50
2018-03-15T20:04:24.956Z,5.40
2018-03-15T20:06:52.439Z,5.40
2018-03-15T20:09:20.158Z,5.40
2018-03-15T20:11:47.723Z,5.40
2018-03-15T20:14:15.362Z,5.40
2018-03-15T20:16:42.838Z,5.40
2018-03-15T20:19:15.858Z,5.30
2018-03-15T20:21:43.294Z,5.30
2018-03-15T20:24:16.446Z,5.30
2018-03-15T20:26:43.926Z,5.20
2018-03-15T20:29:11.385Z,5.20
2018-03-15T20:31:38.882Z,5.20
2018-03-15T20:34:10.118Z,5.20
2018-03-15T20:36:38.529Z,5.10
2018-03-15T20:39:11.714Z,5.10
2018-03-15T20:41:39.979Z,5.10
2018-03-15T20:44:07.434Z,5.10
2018-03-15T20:46:40.699Z,5.00
2018-03-15T20:49:11.930Z,5.00
2018-03-15T20:51:39.607Z,4.90
2018-03-15T20:54:07.087Z,5.00
2018-03-15T20:56:35.070Z,4.90
2018-03-15T20:59:02.525Z,4.90
2018-03-15T21:01:29.970Z,4.90
2018-03-15T21:03:57.806Z,4.80
2018-03-15T21:06:25.434Z,4.80
2018-03-15T21:08:53.036Z,4.80
2018-03-15T21:11:20.782Z,4.80
2018-03-15T21:13:48.239Z,4.70
2018-03-15T21:16:15.697Z,4.70
2018-03-15T21:18:43.479Z,4.60
2018-03-15T21:21:10.918Z,4.60
2018-03-15T21:23:38.395Z,4.60
2018-03-15T21:26:05.856Z,4.60
2018-03-15T21:28:33.366Z,4.60
2018-03-15T21:31:01.963Z,4.60
2018-03-15T21:33:29.389Z,4.60
2018-03-15T21:35:56.835Z,4.50
2018-03-15T21:38:24.291Z,4.50
2018-03-15T21:40:51.750Z,4.50
2018-03-15T21:43:19.190Z,4.50
2018-03-15T21:45:46.650Z,4.50
2018-03-15T21:48:14.260Z,4.40
2018-03-15T21:50:42.258Z,4.40
2018-03-15T21:53:10.031Z,4.40
2018-03-15T21:55:37.786Z,4.40
2018-03-15T21:58:05.413Z,4.40
2018-03-15T22:00:33.258Z,4.40
2018-03-15T22:03:01.102Z,4.40
2018-03-15T22:05:28.719Z,4.40
2018-03-15T22:07:56.166Z,4.30
2018-03-15T22:10:23.678Z,4.30
2018-03-15T22:12:51.534Z,4.30
2018-03-15T22:15:19.286Z,4.30
2018-03-15T22:17:46.750Z,4.30
2018-03-15T22:20:14.395Z,4.30
2018-03-15T22:22:41.833Z,4.30
2018-03-15T22:25:10.154Z,4.30
2018-03-15T22:27:37.966Z,4.20
2018-03-15T22:30:05.423Z,4.20
2018-03-15T22:32:32.944Z,4.20
2018-03-15T22:35:00.478Z,4.20
2018-03-15T22:37:27.918Z,4.20
2018-03-15T22:39:55.409Z,4.20
2018-03-15T22:42:22.854Z,4.10
2018-03-15T22:44:50.317Z,4.10
2018-03-15T22:47:18.077Z,4.20
2018-03-15T22:49:45.539Z,4.10
2018-03-15T22:52:13.195Z,4.10
2018-03-15T22:54:40.731Z,4.10
2018-03-15T22:57:08.951Z,4.10
2018-03-15T22:59:36.502Z,4.10
2018-03-15T23:02:04.647Z,4.10
2018-03-15T23:04:32.106Z,4.10
2018-03-15T23:06:59.756Z,4.10
2018-03-15T23:09:27.338Z,4.10
2018-03-15T23:11:54.818Z,4.00
2018-03-15T23:14:22.429Z,4.10
2018-03-15T23:16:49.918Z,4.00
2018-03-15T23:19:17.496Z,4.00
2018-03-15T23:21:44.947Z,4.00
2018-03-15T23:24:12.906Z,4.00
2018-03-15T23:26:40.358Z,3.90
2018-03-15T23:29:08.114Z,3.90
2018-03-15T23:31:35.693Z,3.90
2018-03-15T23:34:04.680Z,3.90
2018-03-15T23:36:32.458Z,3.90
2018-03-15T23:38:59.886Z,3.90
2018-03-15T23:41:27.577Z,3.90
2018-03-15T23:43:55.422Z,3.90
2018-03-15T23:46:22.883Z,3.90
2018-03-15T23:48:51.872Z,3.90
2018-03-15T23:51:19.546Z,3.90
2018-03-15T23:53:47.266Z,3.90
2018-03-15T23:56:15.172Z,3.90
2018-03-15T23:58:43.205Z,3.90
